Station info - map view · info · telemetry · weather · raw · status · beacons · messages · bulletins · browse · moving · my account
Callsign, ship name or locator: Clear       
It is possible to search using wildcards (*?) after a prefix. Example: OH*
APRS station DL8SO-9 - show graphs
Map loading...
Mic-E message: En route
Location: 42°54.42' N 11°32.22' E - locator JN52SV47KQ - show map - static map
1.0 miles North bearing 354° from Castel del Piano, Provincia di Grosseto, Tuscany, Italy [?]
1.8 miles Southwest bearing 214° from Seggiano, Provincia di Grosseto, Tuscany, Italy
61.1 miles South bearing 166° from Florence, Provincia di Firenze, Tuscany, Italy
84.9 miles Northwest bearing 326° from Roma, Provincia di Roma, Latium, Italy
Last position: 2017-02-19 11:43:51 EST (4d 15h40m ago)
2017-02-19 17:43:51 CET local time at Castel del Piano, Italy [?]
Altitude: 1414 ft
Course: 299°
Speed: 13 MPH
Device: Yaesu: FTM-350 (rig)
Last path: DL8SO-9>TR5T42 via WIDE1-1,WIDE2-1,qAS,IR5X (good)
Positions stored: 21722
Packet rate: 118 seconds between packets on average during 5924 seconds.
Stations near current position of DL8SO-9 - show more
callsign distance last heard - EST      callsign distance last heard - EST
IK5LPD2.7 miles 164°2017-02-13 13:38:19 IR5AM4.8 miles 184°2017-01-28 11:04:19
IQ5AA-110.9 miles 347°2017-02-13 03:18:51 I001GR-513.4 miles 278°2017-01-29 02:40:16
IZ5QRH18.2 miles 214°2017-02-24 03:21:33 FW026120.4 miles 329°2017-02-22 14:51:33
EW835621.4 miles 49°2017-02-24 03:21:46 IZ5SIH22.8 miles 33°2017-02-16 15:41:08
IZ8MRZ-1022.8 miles 47°2017-01-27 10:38:32 IZ5MJZ23.1 miles 246°2017-02-18 03:52:33
IZ5MJZ-223.1 miles 246°2017-02-12 05:20:39 IZ0NNL-923.4 miles 42°2017-02-23 08:39:16
IR5UCU B23.6 miles 33°2017-02-24 03:17:11 IR5UCU-B23.6 miles 33°2017-02-24 03:17:21
IU5FFN-823.6 miles 33°2017-02-18 06:00:32 IZ5CMC24.2 miles 244°2017-02-14 12:46:24
FW015024.3 miles 97°2017-02-24 03:13:53 IZ5CMC B24.6 miles 242°2017-02-24 03:08:15
IZ5CMC-B24.6 miles 242°2017-02-24 03:24:02 IK5ROS25.7 miles 279°2017-02-24 03:19:23
Stations which heard DL8SO-9 directly on radio –
callsign pkts first heard - EST last heard longest (tx => rx) longest at - EST
DB0RZ 1 2017-02-19 03:05:32 2017-02-19 03:05:32 JN57IL > JN48SD 72.4 miles 312° 2017-02-19 03:05:32
IR5X 8 2017-02-19 09:33:10 2017-02-19 11:43:51 JN52SV > JN53GS 77.9 miles 320° 2017-02-19 11:38:13
IR3BT 19 2017-02-19 05:41:23 2017-02-19 06:43:06 JN56TR > JN56MD 49.4 miles 216° 2017-02-19 05:41:23
DB0ZD 3 2017-02-19 02:29:03 2017-02-19 02:41:56 JN57DU > JN57CM 22.1 miles 188° 2017-02-19 02:29:03
DJ5SO-1 1 2017-02-19 01:57:56 2017-02-19 01:57:56 JN58BI > JN48XK 8.0 miles 312° 2017-02-19 01:57:56
IR3AS 1 2017-02-19 06:24:57 2017-02-19 06:24:57 JN56NE > JN56QB 14.1 miles 134° 2017-02-19 06:24:57
IR4AN 9 2017-02-19 08:21:18 2017-02-19 08:43:39 JN54KU > JN54FK 33.6 miles 213° 2017-02-19 08:21:18
IK3XTM 10 2017-02-19 07:02:53 2017-02-19 07:45:40 JN55KH > JN55LP 23.0 miles 6° 2017-02-19 07:33:35
IN3RSV 10 2017-02-19 06:33:19 2017-02-19 06:51:38 JN56NB > JN55NV 10.5 miles 172° 2017-02-19 06:33:19
OE7XLR-1 15 2017-02-19 03:42:14 2017-02-19 05:00:12 JN57JH > JN57QH 25.9 miles 92° 2017-02-19 03:42:14
IK5ZUN 12 2017-02-19 09:29:30 2017-02-19 09:52:48 JN53OW > JN53OR 13.7 miles 179° 2017-02-19 09:29:30
IQ3VQ 3 2017-02-19 07:17:04 2017-02-19 07:27:32 JN55KH > JN55MK 13.4 miles 41° 2017-02-19 07:27:32
TK1LG-4 1 2017-02-19 11:02:25 2017-02-19 11:02:25 JN52PX > JN42RH 102.0 miles 244° 2017-02-19 11:02:25
IR3UHI 4 2017-02-19 05:36:34 2017-02-19 05:46:57 JN56TP > JN56UU 14.7 miles 18° 2017-02-19 05:46:57
IZ4TNX-11 1 2017-02-19 09:03:35 2017-02-19 09:03:35 JN54OH > JN54SM 21.3 miles 40° 2017-02-19 09:03:35
IZ3LBC 3 2017-02-19 07:02:55 2017-02-19 07:52:36 JN55KH > JN55KL 12.7 miles 356° 2017-02-19 07:52:36
IR2BZ 1 2017-02-19 08:07:12 2017-02-19 08:07:12 JN55KB > JN45XO 56.9 miles 311° 2017-02-19 08:07:12
IR3UGD 17 2017-02-19 05:01:18 2017-02-19 05:35:08 JN57SA > JN56PU 15.7 miles 217° 2017-02-19 05:01:18
DB0SAA-10 6 2017-02-19 01:22:13 2017-02-19 03:08:24 JN57IK > JN58BT 97.7 miles 342° 2017-02-19 03:08:24
IZ4UFQ-10 2 2017-02-19 08:47:38 2017-02-19 08:49:39 JN54OM > JN54QL 9.2 miles 104° 2017-02-19 08:47:38
IZ5OQO-11 3 2017-02-19 11:27:51 2017-02-19 11:33:14 JN52SV > JN53TG 25.6 miles 10° 2017-02-19 11:33:14
IR2Y 2 2017-02-19 07:02:53 2017-02-19 07:10:08 JN55KP > JN55EK 28.5 miles 238° 2017-02-19 07:02:53
IZ4SJB-3 3 2017-02-19 08:45:51 2017-02-19 08:51:50 JN54NM > JN54PL 8.7 miles 107° 2017-02-19 08:45:51
IR3DQ 1 2017-02-19 06:16:37 2017-02-19 06:16:37 JN56OH > JN56NQ 26.1 miles 351° 2017-02-19 06:16:37
IR4BA 11 2017-02-19 07:02:52 2017-02-19 09:09:47 JN55KP > JN54NF 98.7 miles 174° 2017-02-19 07:02:52
DB0OAL 14 2017-02-19 01:22:55 2017-02-19 02:56:51 JN58CT > JN57JN 90.5 miles 163° 2017-02-19 01:22:55
IR4X-11 4 2017-02-19 08:52:16 2017-02-19 09:09:50 JN54OF > JN54PK 14.6 miles 16° 2017-02-19 09:09:50
IR2S 3 2017-02-19 07:15:04 2017-02-19 07:48:33 JN55KH > JN55DQ 39.9 miles 310° 2017-02-19 07:48:33
IR2CV 10 2017-02-19 07:06:21 2017-02-19 08:23:17 JN55JO > JN55JC 34.5 miles 185° 2017-02-19 07:06:21
DE1TBK-10 4 2017-02-19 02:30:23 2017-02-19 02:36:23 JN57DT > JN57DR 7.7 miles 166° 2017-02-19 02:30:23
DB0MM 4 2017-02-19 02:34:23 2017-02-19 02:40:21 JN57EQ > JN57DR 5.3 miles 301° 2017-02-19 02:40:21
IR2DD 6 2017-02-19 07:04:55 2017-02-19 07:18:20 JN55KK > JN55GL 18.1 miles 279° 2017-02-19 07:18:20
DL1GER-10 6 2017-02-19 01:45:54 2017-02-19 03:06:28 JN57IL > JN58CM 77.8 miles 344° 2017-02-19 03:06:28
IR5AS-11 1 2017-02-19 10:17:50 2017-02-19 10:17:50 JN53NK > JN54NC 46.2 miles 1° 2017-02-19 10:17:50
DB0WV-10 1 2017-02-19 02:11:32 2017-02-19 02:11:32 JN58BC > JN47QT 38.7 miles 239° 2017-02-19 02:11:32
OE7XGR-10 7 2017-02-19 04:17:07 2017-02-19 05:52:43 JN57LG > JN57UB 37.3 miles 114° 2017-02-19 04:18:09
OE7XKH-10 12 2017-02-19 03:20:41 2017-02-19 04:22:18 JN57MG > JN57HD 20.6 miles 242° 2017-02-19 04:22:18
DB0DLG-10 4 2017-02-19 01:30:08 2017-02-19 03:07:53 JN57IK > JN58FM 74.8 miles 349° 2017-02-19 03:07:53
DL3SFC-10 8 2017-02-19 01:35:23 2017-02-19 02:05:53 JN58CP > JN58CI 22.4 miles 182° 2017-02-19 01:35:23
IW5CBL-15 12 2017-02-19 07:09:38 2017-02-19 08:15:16 JN55JN > JN54BH 90.4 miles 201° 2017-02-19 07:09:38
IZ3VIV-15 3 2017-02-19 07:18:19 2017-02-19 07:45:33 JN55KH > JN55PJ 20.1 miles 70° 2017-02-19 07:45:33
IQ4SC 10 2017-02-19 08:09:13 2017-02-19 08:45:38 JN55KA > JN54IO 30.7 miles 195° 2017-02-19 08:09:13
dl1mj-10 2 2017-02-19 01:37:47 2017-02-19 01:39:49 JN58CO > JN58HP 19.4 miles 83° 2017-02-19 01:39:49
IR4UCI-11 13 2017-02-19 06:58:52 2017-02-19 08:49:37 JN55LQ > JN54MM 81.4 miles 177° 2017-02-19 06:58:52
IU2GOH 1 2017-02-19 07:13:03 2017-02-19 07:13:03 JN55JL > JN55BL 32.3 miles 269° 2017-02-19 07:13:03
IQ3LK-10 5 2017-02-19 05:48:44 2017-02-19 06:30:47 JN56SP > JN56RH 23.3 miles 192° 2017-02-19 05:48:44
IR0AAD-10 1 2017-02-19 10:52:19 2017-02-19 10:52:19 JN53PC > JN62JU 77.5 miles 101° 2017-02-19 10:52:19
DB0LC-1 1 2017-02-19 02:17:19 2017-02-19 02:17:19 JN58BA > JN47WN 33.8 miles 204° 2017-02-19 02:17:19
OE7XGR 9 2017-02-19 04:17:08 2017-02-19 04:53:02 JN57LG > JN57UB 37.3 miles 114° 2017-02-19 04:18:10
IQ3VO 8 2017-02-19 06:48:52 2017-02-19 08:30:48 JN54KQ > JN55MQ 70.9 miles 8° 2017-02-19 08:30:48
IR3AO 3 2017-02-19 05:25:24 2017-02-19 06:16:34 JN56RV > JN56WK 37.1 miles 147° 2017-02-19 05:25:24
IZ5RZS 1 2017-02-19 10:54:29 2017-02-19 10:54:29 JN53PB > JN53VH 29.2 miles 52° 2017-02-19 10:54:29
OE7XEI-10 13 2017-02-19 04:26:51 2017-02-19 04:57:40 JN57NH > JN57SG 19.3 miles 95° 2017-02-19 04:26:51

Only position packets which were originated by the station are shown here. The range statistics show some extra long hops, because some digipeaters do not correctly add themselves to the digipeater path. Please check the raw packets.
About this site
This page shows real-time information collected from the Automatic Position Reporting System Internet network (APRS-IS). APRS is used by amateur (ham) radio operators to transmit real-time position information, weather data, telemetry and messages over the radio. A vehicle equipped with a GPS receiver, a VHF transmitter or HF transceiver and a small computer device called a tracker transmits it's location, speed and course in a small data packet, which is then received by a nearby iGate receiving site which forwards the packet on the Internet. Systems connected to the Internet can send information on the APRS-IS without a radio transmitter, or collect and display information transmitted anywhere in the world.
FAQ · Blog · Discussion group · Linking to aprs.fi · AIS sites · Service status · Database statistics · Advertising on aprs.fi · Technical details · API · Change log · Planned changes · Credits and thanks · Terms Of Service · iPhone/iPad APRS